Time;durP1;ratioP1;P1;durP2;ratioP2;P2;SDS_P1;SDS_P2;PMS_P1;PMS_P2;Temp;Humidity;BMP_temperature;BMP_pressure;BME280_temperature;BME280_humidity;BME280_pressure;Samples;Min_cycle;Max_cycle;Signal;HPM_P1;HPM_P2
2023/11/23 00:01:05;;;;;;;18.08;11.70;;;1.20;98.50;;;;;;5014028;28;20378;-69
2023/11/23 00:03:30;;;;;;;19.27;11.95;;;1.20;98.30;;;;;;5013558;28;20037;-69
2023/11/23 00:05:56;;;;;;;17.08;11.40;;;1.20;98.30;;;;;;5011514;28;20389;-69
2023/11/23 00:08:21;;;;;;;17.08;10.20;;;1.20;98.10;;;;;;5015409;28;20037;-69
2023/11/23 00:10:47;;;;;;;20.52;12.73;;;1.20;98.10;;;;;;5015747;28;20071;-68
2023/11/23 00:13:12;;;;;;;18.48;10.98;;;1.20;98.00;;;;;;5010912;28;20498;-69
2023/11/23 00:15:38;;;;;;;20.40;11.60;;;1.30;98.00;;;;;;5012452;28;20030;-69
2023/11/23 00:18:03;;;;;;;18.33;11.20;;;1.30;97.80;;;;;;5012134;28;20034;-69
2023/11/23 00:20:29;;;;;;;15.98;10.43;;;1.40;97.90;;;;;;5014668;28;20502;-69
2023/11/23 00:22:57;;;;;;;18.92;11.93;;;1.30;97.60;;;;;;5022996;28;20405;-69
2023/11/23 00:25:23;;;;;;;17.08;10.35;;;1.30;97.30;;;;;;5019514;28;20025;-69
2023/11/23 00:27:49;;;;;;;17.55;11.43;;;1.40;97.30;;;;;;5016154;28;20434;-68
2023/11/23 00:30:14;;;;;;;17.52;10.60;;;1.40;97.30;;;;;;5022440;28;20492;-67
2023/11/23 00:32:40;;;;;;;16.65;10.00;;;1.40;97.20;;;;;;5021696;28;20024;-68
2023/11/23 00:35:06;;;;;;;16.92;10.27;;;1.40;97.20;;;;;;5019761;28;20596;-68
2023/11/23 00:37:31;;;;;;;20.27;10.73;;;1.50;97.20;;;;;;5010303;28;20500;-69
2023/11/23 00:39:57;;;;;;;18.48;10.27;;;1.50;96.70;;;;;;5015561;28;20033;-69
2023/11/23 00:42:24;;;;;;;16.20;9.80;;;1.50;96.60;;;;;;5015926;28;20029;-68
2023/11/23 00:44:50;;;;;;;16.88;10.30;;;1.50;96.60;;;;;;5018963;28;20026;-68
2023/11/23 00:47:15;;;;;;;18.45;9.98;;;1.50;96.50;;;;;;5018882;28;20572;-68
2023/11/23 00:49:41;;;;;;;18.40;10.57;;;1.60;96.40;;;;;;5024550;28;20099;-69
2023/11/23 00:52:06;;;;;;;15.43;8.90;;;1.60;96.50;;;;;;5027919;28;20026;-68
2023/11/23 00:54:39;;;;;;;17.02;10.32;;;1.60;96.20;;;;;;5022459;28;20033;-68
2023/11/23 00:57:06;;;;;;;17.63;9.95;;;1.60;95.90;;;;;;5022580;28;20113;-68
2023/11/23 00:59:32;;;;;;;16.30;9.48;;;1.60;95.60;;;;;;5022473;28;20021;-68
2023/11/23 01:01:57;;;;;;;15.52;9.55;;;1.70;95.70;;;;;;5023336;28;20027;-68
2023/11/23 01:04:22;;;;;;;13.00;8.35;;;1.70;95.30;;;;;;5025408;28;20075;-68
2023/11/23 01:06:48;;;;;;;13.35;8.68;;;1.70;95.60;;;;;;5023089;28;20026;-68
2023/11/23 01:09:13;;;;;;;17.17;9.63;;;1.70;95.50;;;;;;5025395;28;20029;-67
2023/11/23 01:11:39;;;;;;;15.60;8.88;;;1.80;95.40;;;;;;5020122;28;20033;-68
2023/11/23 01:14:07;;;;;;;14.68;8.18;;;1.80;95.10;;;;;;5018915;28;20025;-68
2023/11/23 01:16:33;;;;;;;13.38;9.30;;;1.80;95.30;;;;;;5023519;28;20516;-68
2023/11/23 01:18:58;;;;;;;15.57;9.20;;;1.90;95.10;;;;;;5022114;28;20026;-68
2023/11/23 01:21:24;;;;;;;14.35;9.32;;;1.90;95.00;;;;;;5023675;28;20405;-69
2023/11/23 01:23:49;;;;;;;13.45;8.77;;;1.90;94.80;;;;;;5019772;28;20041;-68
2023/11/23 01:26:16;;;;;;;12.32;8.63;;;1.90;94.90;;;;;;5024504;28;20037;-68
2023/11/23 01:28:42;;;;;;;12.77;8.07;;;1.90;95.10;;;;;;5020768;28;20044;-68
2023/11/23 01:31:09;;;;;;;13.07;7.95;;;2.00;94.90;;;;;;5024410;28;20492;-68
2023/11/23 01:33:34;;;;;;;13.27;8.77;;;2.00;94.90;;;;;;5021692;28;20557;-68
2023/11/23 01:36:00;;;;;;;10.95;7.22;;;2.10;94.90;;;;;;5024594;28;20123;-66
2023/11/23 01:38:26;;;;;;;11.85;7.30;;;2.10;94.90;;;;;;5022011;28;20045;-68
2023/11/23 01:40:54;;;;;;;11.30;6.75;;;2.20;94.80;;;;;;5021448;28;20013;-68
2023/11/23 01:43:20;;;;;;;10.40;7.00;;;2.20;94.90;;;;;;5021346;28;20088;-68
2023/11/23 01:45:45;;;;;;;13.13;7.60;;;2.30;94.80;;;;;;5025624;28;20014;-68
2023/11/23 01:48:12;;;;;;;11.05;6.75;;;2.30;94.50;;;;;;5018608;28;20080;-68
2023/11/23 01:50:40;;;;;;;11.13;6.90;;;2.30;94.60;;;;;;5023197;28;20025;-68
2023/11/23 01:53:07;;;;;;;9.75;6.78;;;2.40;94.00;;;;;;5021317;28;20030;-68
2023/11/23 01:55:33;;;;;;;10.60;6.40;;;2.40;94.00;;;;;;5021147;28;20025;-68
2023/11/23 01:58:02;;;;;;;11.65;7.30;;;2.40;94.10;;;;;;5023134;28;20030;-68
2023/11/23 02:00:29;;;;;;;13.60;6.25;;;2.50;93.90;;;;;;5022979;28;20433;-68
2023/11/23 02:02:55;;;;;;;11.30;6.53;;;2.50;93.70;;;;;;5018908;28;20397;-68
2023/11/23 02:05:25;;;;;;;12.25;6.55;;;2.50;93.70;;;;;;5020941;28;20064;-68
2023/11/23 02:07:51;;;;;;;8.88;5.68;;;2.50;93.60;;;;;;5025195;28;20025;-68
2023/11/23 02:10:18;;;;;;;10.63;6.28;;;2.60;93.60;;;;;;5021080;28;20448;-68
2023/11/23 02:12:46;;;;;;;10.23;6.45;;;2.50;93.60;;;;;;5022074;28;20021;-68
2023/11/23 02:15:12;;;;;;;9.45;5.78;;;2.60;93.70;;;;;;5021076;28;20030;-67
2023/11/23 02:17:38;;;;;;;7.85;5.57;;;2.60;93.70;;;;;;5020896;28;20151;-68
2023/11/23 02:20:08;;;;;;;12.43;6.38;;;2.60;93.70;;;;;;5020864;28;20014;-68
2023/11/23 02:22:37;;;;;;;7.97;5.35;;;2.60;93.80;;;;;;5020568;28;20033;-68
2023/11/23 02:25:06;;;;;;;8.88;5.47;;;2.60;93.60;;;;;;5026626;28;20025;-67
2023/11/23 02:27:37;;;;;;;8.35;5.50;;;2.60;93.50;;;;;;5022915;28;20030;-67
2023/11/23 02:30:05;;;;;;;9.85;5.38;;;2.70;93.70;;;;;;5018989;28;20033;-67
2023/11/23 02:32:31;;;;;;;10.18;5.60;;;2.70;93.80;;;;;;5018383;28;20052;-67
2023/11/23 02:34:56;;;;;;;8.68;5.55;;;2.70;93.70;;;;;;5020570;28;20026;-67
2023/11/23 02:37:23;;;;;;;8.30;5.22;;;2.70;93.90;;;;;;5010459;28;20314;-67
2023/11/23 02:39:49;;;;;;;9.65;5.18;;;2.80;93.60;;;;;;5021347;28;20138;-67
2023/11/23 02:42:14;;;;;;;8.52;4.97;;;2.80;93.80;;;;;;5025571;28;20013;-67
2023/11/23 02:44:40;;;;;;;6.50;4.50;;;2.80;93.80;;;;;;5023913;28;20056;-67
2023/11/23 02:47:05;;;;;;;8.35;5.18;;;2.90;93.80;;;;;;5026044;28;20532;-67
2023/11/23 02:49:31;;;;;;;10.07;5.22;;;2.90;93.70;;;;;;5021062;28;20109;-67
2023/11/23 02:51:57;;;;;;;10.45;5.43;;;2.90;93.70;;;;;;5020638;28;20041;-67
2023/11/23 02:54:23;;;;;;;8.73;4.85;;;2.90;93.70;;;;;;5020209;28;20022;-68
2023/11/23 02:56:49;;;;;;;8.20;4.53;;;3.00;93.60;;;;;;5020076;28;20059;-67
2023/11/23 02:59:15;;;;;;;6.80;4.60;;;3.00;93.50;;;;;;5020157;28;20524;-67
2023/11/23 03:01:41;;;;;;;7.03;4.35;;;3.00;93.50;;;;;;5020135;28;20021;-58
2023/11/23 03:04:07;;;;;;;9.75;5.18;;;3.00;93.60;;;;;;5021819;28;20029;-57
2023/11/23 03:06:32;;;;;;;6.78;4.22;;;3.00;93.50;;;;;;5024166;28;20080;-57
2023/11/23 03:08:58;;;;;;;8.93;5.30;;;3.10;93.50;;;;;;5012047;28;20034;-56
2023/11/23 03:11:25;;;;;;;7.68;4.45;;;3.10;93.50;;;;;;5014327;28;20079;-56
2023/11/23 03:13:52;;;;;;;7.80;4.78;;;3.10;93.50;;;;;;5015211;28;20030;-56
2023/11/23 03:16:17;;;;;;;7.47;4.50;;;3.10;93.40;;;;;;5011322;28;20164;-55
2023/11/23 03:18:44;;;;;;;12.88;4.95;;;3.20;93.60;;;;;;5013780;28;20104;-56
2023/11/23 03:21:10;;;;;;;8.27;4.20;;;3.20;93.50;;;;;;5015932;28;20048;-56
2023/11/23 03:23:36;;;;;;;6.70;4.13;;;3.30;93.70;;;;;;5015749;28;20046;-57
2023/11/23 03:26:02;;;;;;;6.97;4.95;;;3.20;93.50;;;;;;5013680;28;20025;-58
2023/11/23 03:28:27;;;;;;;7.60;4.15;;;3.30;93.70;;;;;;5014188;28;20034;-57
2023/11/23 03:30:54;;;;;;;7.45;4.82;;;3.30;93.70;;;;;;5015996;28;20051;-53
2023/11/23 03:33:19;;;;;;;8.02;4.10;;;3.30;93.70;;;;;;5015629;28;20053;-54
2023/11/23 03:35:45;;;;;;;6.97;4.53;;;3.30;93.80;;;;;;5013952;28;20560;-58
2023/11/23 03:38:11;;;;;;;9.70;4.25;;;3.30;93.80;;;;;;5012825;28;20168;-57
2023/11/23 03:40:39;;;;;;;8.25;4.50;;;3.40;93.80;;;;;;5016829;28;20028;-57
2023/11/23 03:43:05;;;;;;;10.60;5.00;;;3.40;93.90;;;;;;5014105;28;20405;-57
2023/11/23 03:45:31;;;;;;;8.63;4.82;;;3.40;94.00;;;;;;5011592;28;20030;-55
2023/11/23 03:47:58;;;;;;;9.65;4.60;;;3.40;93.90;;;;;;5014779;28;20034;-57
2023/11/23 03:50:26;;;;;;;8.73;4.25;;;3.50;94.10;;;;;;5012681;28;20036;-57
2023/11/23 03:52:52;;;;;;;6.32;4.28;;;3.50;94.00;;;;;;5011466;28;20022;-55
2023/11/23 03:55:18;;;;;;;6.18;3.78;;;3.60;94.10;;;;;;5016061;28;20032;-57
2023/11/23 03:57:45;;;;;;;7.80;4.30;;;3.60;94.10;;;;;;5010748;28;20060;-56
2023/11/23 04:00:12;;;;;;;6.03;3.92;;;3.60;94.20;;;;;;5016419;28;20025;-57
2023/11/23 04:02:37;;;;;;;5.35;3.53;;;3.70;94.30;;;;;;5014883;28;20033;-56
2023/11/23 04:05:03;;;;;;;10.05;4.15;;;3.70;94.40;;;;;;5013096;28;20034;-57
2023/11/23 04:07:29;;;;;;;6.13;4.32;;;3.70;94.50;;;;;;5011277;28;20045;-56
2023/11/23 04:09:55;;;;;;;6.57;4.18;;;3.80;94.60;;;;;;5014300;28;20112;-56
2023/11/23 04:12:20;;;;;;;8.30;5.18;;;3.80;94.60;;;;;;5011918;28;20121;-57
2023/11/23 04:14:46;;;;;;;11.00;4.30;;;3.80;94.70;;;;;;5015370;28;20367;-57
2023/11/23 04:17:11;;;;;;;8.80;4.72;;;3.90;94.90;;;;;;5014042;28;20109;-56
2023/11/23 04:19:37;;;;;;;7.63;4.00;;;3.90;95.00;;;;;;5017686;28;20440;-56
2023/11/23 04:22:06;;;;;;;6.13;3.60;;;3.90;95.10;;;;;;5012081;28;20029;-56
2023/11/23 04:24:33;;;;;;;8.13;3.92;;;3.90;95.20;;;;;;5011027;28;20030;-56
2023/11/23 04:26:59;;;;;;;7.20;4.38;;;4.00;95.30;;;;;;5014759;28;20024;-57
2023/11/23 04:29:24;;;;;;;7.35;4.30;;;4.00;95.50;;;;;;5018490;28;20390;-57
2023/11/23 04:31:50;;;;;;;6.43;3.85;;;4.00;95.60;;;;;;5015181;28;20028;-57
2023/11/23 04:34:15;;;;;;;6.80;3.75;;;4.10;95.70;;;;;;5014157;28;20112;-59
2023/11/23 04:36:41;;;;;;;5.65;3.95;;;4.10;95.70;;;;;;5015227;28;20068;-57
2023/11/23 04:39:06;;;;;;;6.68;3.72;;;4.10;95.80;;;;;;5015948;28;20030;-57
2023/11/23 04:41:33;;;;;;;8.57;4.30;;;4.20;95.90;;;;;;5024744;28;20050;-57
2023/11/23 04:44:00;;;;;;;7.38;4.20;;;4.20;96.00;;;;;;5025827;28;20075;-57
2023/11/23 04:46:26;;;;;;;10.88;3.45;;;4.20;96.10;;;;;;5019559;28;20021;-57
2023/11/23 04:48:51;;;;;;;8.18;3.85;;;4.30;96.10;;;;;;5023389;28;20028;-57
2023/11/23 04:51:17;;;;;;;5.35;3.80;;;4.30;96.20;;;;;;5023076;28;20079;-59
2023/11/23 04:53:42;;;;;;;4.68;3.58;;;4.30;96.30;;;;;;5018785;28;20097;-57
2023/11/23 04:56:08;;;;;;;7.05;3.90;;;4.40;96.50;;;;;;5016808;28;20389;-57
2023/11/23 04:58:34;;;;;;;7.22;3.88;;;4.40;96.60;;;;;;5022612;28;20095;-57
2023/11/23 05:01:00;;;;;;;5.35;3.53;;;4.40;96.80;;;;;;5019003;28;20936;-56
2023/11/23 05:03:28;;;;;;;9.57;5.00;;;4.50;96.80;;;;;;5016426;28;20037;-57
2023/11/23 05:05:54;;;;;;;5.38;3.65;;;4.50;97.00;;;;;;5021155;28;20026;-57
2023/11/23 05:08:19;;;;;;;9.30;4.40;;;4.50;97.00;;;;;;5014367;28;20033;-55
2023/11/23 05:10:45;;;;;;;9.75;4.18;;;4.60;97.20;;;;;;5015803;28;20034;-57
2023/11/23 05:13:10;;;;;;;9.00;4.45;;;4.60;97.40;;;;;;5016473;28;20022;-57
2023/11/23 05:15:36;;;;;;;6.53;4.00;;;4.70;97.60;;;;;;5018243;28;20049;-57
2023/11/23 05:18:01;;;;;;;4.88;3.58;;;4.70;97.60;;;;;;5018329;28;20104;-56
2023/11/23 05:20:27;;;;;;;7.35;4.78;;;4.70;97.70;;;;;;5022243;28;20106;-57
2023/11/23 05:22:52;;;;;;;6.05;3.97;;;4.80;97.90;;;;;;5019795;28;20045;-56
2023/11/23 05:25:18;;;;;;;9.43;4.32;;;4.80;98.00;;;;;;5022313;28;20401;-57
2023/11/23 05:27:43;;;;;;;6.97;4.13;;;4.90;98.30;;;;;;5024905;28;20044;-57
2023/11/23 05:30:09;;;;;;;7.82;4.47;;;4.80;98.40;;;;;;5014914;28;20105;-54
2023/11/23 05:32:35;;;;;;;8.13;4.80;;;4.90;98.80;;;;;;5017506;28;20788;-57
2023/11/23 05:35:00;;;;;;;8.25;4.78;;;4.90;99.10;;;;;;5020374;28;20023;-55
2023/11/23 05:37:26;;;;;;;7.88;5.07;;;4.90;99.30;;;;;;5015139;28;20572;-55
2023/11/23 05:39:51;;;;;;;6.82;4.25;;;4.90;99.50;;;;;;5019711;28;20035;-56
2023/11/23 05:42:17;;;;;;;10.32;4.65;;;4.90;99.60;;;;;;5021202;28;20485;-58
2023/11/23 05:44:43;;;;;;;7.65;5.13;;;5.00;99.90;;;;;;5027442;28;20116;-57
2023/11/23 05:47:08;;;;;;;8.13;4.55;;;5.00;99.90;;;;;;5021119;28;20116;-56
2023/11/23 05:49:33;;;;;;;7.10;4.40;;;5.00;99.90;;;;;;5015837;28;20034;-54
2023/11/23 05:51:59;;;;;;;8.68;5.75;;;5.00;99.90;;;;;;5019536;28;20489;-57
2023/11/23 05:54:25;;;;;;;10.98;4.88;;;5.10;99.90;;;;;;5014965;28;20044;-56
2023/11/23 05:56:50;;;;;;;9.52;5.65;;;5.10;99.90;;;;;;5020182;28;20638;-57
2023/11/23 05:59:16;;;;;;;11.20;5.80;;;5.10;99.90;;;;;;5022829;28;20512;-57
2023/11/23 06:01:41;;;;;;;11.18;6.00;;;5.10;99.90;;;;;;5013461;28;20091;-57
2023/11/23 06:04:07;;;;;;;10.13;6.00;;;5.20;99.90;;;;;;5015198;28;20021;-56
2023/11/23 06:06:32;;;;;;;8.88;5.97;;;5.10;99.90;;;;;;5018742;28;20568;-58
2023/11/23 06:08:58;;;;;;;9.00;5.47;;;5.20;99.90;;;;;;5012054;28;20026;-58
2023/11/23 06:11:23;;;;;;;10.05;5.32;;;5.20;99.90;;;;;;5026335;28;20029;-56
2023/11/23 06:13:49;;;;;;;8.45;4.85;;;5.20;99.90;;;;;;5021003;28;20044;-56
2023/11/23 06:16:15;;;;;;;10.27;5.50;;;5.20;99.90;;;;;;5020853;28;20058;-57
2023/11/23 06:18:41;;;;;;;8.75;4.97;;;5.20;99.90;;;;;;5020786;28;20083;-57
2023/11/23 06:21:08;;;;;;;10.98;6.00;;;5.20;99.90;;;;;;5020746;28;20021;-56
2023/11/23 06:23:33;;;;;;;7.32;4.72;;;5.30;99.90;;;;;;5015759;28;20056;-57
2023/11/23 06:25:59;;;;;;;7.72;4.85;;;5.30;99.90;;;;;;5011378;28;20120;-57
2023/11/23 06:28:24;;;;;;;6.93;4.78;;;5.30;99.90;;;;;;5008982;28;20394;-57
2023/11/23 06:30:51;;;;;;;6.88;4.93;;;5.40;99.90;;;;;;5013059;28;20506;-56
2023/11/23 06:33:16;;;;;;;10.45;6.22;;;5.40;99.90;;;;;;5013256;28;20026;-54
2023/11/23 06:35:42;;;;;;;10.65;6.78;;;5.40;99.90;;;;;;5008336;28;20033;-57
2023/11/23 06:38:08;;;;;;;10.25;5.78;;;5.50;99.90;;;;;;5004366;28;20037;-58
2023/11/23 06:40:34;;;;;;;9.20;5.88;;;5.50;99.90;;;;;;5010541;28;20026;-54
2023/11/23 06:43:01;;;;;;;7.97;5.63;;;5.60;99.90;;;;;;5005808;28;20033;-53
2023/11/23 06:45:26;;;;;;;10.40;5.95;;;5.60;99.90;;;;;;5012138;28;20033;-53
2023/11/23 06:47:53;;;;;;;9.15;5.68;;;5.60;99.90;;;;;;5008923;28;20498;-57
2023/11/23 06:50:18;;;;;;;11.38;5.85;;;5.70;99.90;;;;;;5012113;28;20044;-57
2023/11/23 06:52:45;;;;;;;10.52;5.72;;;5.70;99.90;;;;;;5014574;28;20037;-56
2023/11/23 06:55:13;;;;;;;11.45;6.38;;;5.70;99.90;;;;;;5011615;28;20025;-55
2023/11/23 06:57:46;;;;;;;9.20;5.80;;;5.70;99.90;;;;;;5015678;28;20031;-55
2023/11/23 07:00:25;;;;;;;11.77;7.45;;;5.80;99.90;;;;;;5014940;28;20394;-57
2023/11/23 07:02:53;;;;;;;11.88;6.93;;;5.80;99.90;;;;;;5006608;28;20018;-57
2023/11/23 07:05:19;;;;;;;10.35;7.32;;;5.80;99.90;;;;;;5013046;28;20537;-57
2023/11/23 07:07:48;;;;;;;10.63;7.03;;;5.80;99.90;;;;;;5014753;28;20385;-57
2023/11/23 07:10:14;;;;;;;11.05;6.63;;;5.80;99.90;;;;;;5009196;28;20072;-55
2023/11/23 07:12:44;;;;;;;9.90;6.30;;;5.90;99.90;;;;;;5014694;28;20025;-57
2023/11/23 07:15:11;;;;;;;10.68;6.45;;;5.90;99.90;;;;;;5006050;28;20505;-57
2023/11/23 07:17:37;;;;;;;9.98;6.78;;;5.90;99.90;;;;;;5005335;28;20026;-57
2023/11/23 07:20:05;;;;;;;10.85;6.82;;;5.90;99.90;;;;;;5013395;28;20030;-56
2023/11/23 07:22:31;;;;;;;11.07;6.50;;;5.90;99.90;;;;;;5004338;28;20847;-56
2023/11/23 07:24:57;;;;;;;12.73;8.43;;;6.00;99.90;;;;;;5015438;28;20033;-54
2023/11/23 07:27:22;;;;;;;11.68;7.35;;;6.00;99.90;;;;;;5010696;28;20040;-56
2023/11/23 07:29:49;;;;;;;14.70;9.07;;;6.10;99.90;;;;;;5016172;28;20639;-56
2023/11/23 07:32:15;;;;;;;15.75;9.65;;;6.10;99.90;;;;;;5018039;28;20025;-56
2023/11/23 07:34:41;;;;;;;20.13;10.18;;;6.10;99.90;;;;;;5017649;28;20390;-55
2023/11/23 07:37:08;;;;;;;11.98;7.63;;;6.10;99.90;;;;;;5003039;28;20029;-55
2023/11/23 07:39:33;;;;;;;13.93;9.55;;;6.10;99.90;;;;;;5006270;28;20541;-57
2023/11/23 07:41:59;;;;;;;14.98;8.40;;;6.10;99.90;;;;;;5007023;28;20053;-56
2023/11/23 07:44:25;;;;;;;18.20;9.88;;;6.10;99.90;;;;;;5006716;28;20061;-55
2023/11/23 07:46:51;;;;;;;13.50;8.40;;;6.10;99.90;;;;;;5013127;28;20396;-56
2023/11/23 07:49:16;;;;;;;15.93;8.80;;;6.10;99.90;;;;;;5013249;28;20037;-56
2023/11/23 07:51:42;;;;;;;11.43;7.40;;;6.10;99.90;;;;;;5015086;28;20549;-56
2023/11/23 07:54:09;;;;;;;13.13;8.13;;;6.10;99.90;;;;;;5017072;28;20500;-55
2023/11/23 07:56:34;;;;;;;13.13;8.10;;;6.20;99.90;;;;;;5000368;28;20022;-52
2023/11/23 07:59:00;;;;;;;17.13;10.20;;;6.20;99.90;;;;;;5012211;28;20033;-55
2023/11/23 08:01:28;;;;;;;12.65;7.57;;;6.20;99.90;;;;;;5007715;28;20052;-54
2023/11/23 08:03:54;;;;;;;16.77;9.13;;;6.20;99.90;;;;;;5010946;28;20025;-55
2023/11/23 08:06:19;;;;;;;14.85;9.43;;;6.20;99.90;;;;;;5014915;28;20026;-56
2023/11/23 08:08:46;;;;;;;13.48;8.43;;;6.30;99.90;;;;;;5018597;28;20017;-57
2023/11/23 08:11:11;;;;;;;13.15;8.70;;;6.30;99.90;;;;;;5014628;28;20045;-54
2023/11/23 08:13:37;;;;;;;11.75;8.20;;;6.30;99.90;;;;;;5013501;28;20053;-56
2023/11/23 08:16:04;;;;;;;13.40;7.90;;;6.40;99.90;;;;;;5019250;28;20389;-56
2023/11/23 08:18:29;;;;;;;12.05;8.20;;;6.40;99.90;;;;;;5019357;28;20101;-56
2023/11/23 08:20:55;;;;;;;12.40;7.82;;;6.40;99.90;;;;;;5021869;28;20534;-54
2023/11/23 08:23:21;;;;;;;17.02;9.15;;;6.40;99.90;;;;;;5018221;28;20540;-55
2023/11/23 08:25:47;;;;;;;13.07;7.78;;;6.40;99.90;;;;;;5018550;28;20029;-53
2023/11/23 08:28:13;;;;;;;11.02;7.97;;;6.50;99.90;;;;;;5017250;28;20032;-57
2023/11/23 08:30:38;;;;;;;14.68;8.35;;;6.50;99.90;;;;;;5017503;28;20033;-57
2023/11/23 08:33:04;;;;;;;15.65;8.55;;;6.50;99.90;;;;;;5017541;28;20033;-56
2023/11/23 08:35:31;;;;;;;12.00;8.63;;;6.50;99.90;;;;;;5011745;28;20017;-57
2023/11/23 08:37:56;;;;;;;12.95;8.23;;;6.50;99.90;;;;;;5005953;28;20533;-56
2023/11/23 08:40:22;;;;;;;13.88;8.93;;;6.60;99.90;;;;;;5020916;28;20029;-55
2023/11/23 08:42:47;;;;;;;13.85;8.13;;;6.60;99.90;;;;;;5013077;28;20033;-57
2023/11/23 08:45:13;;;;;;;11.82;7.30;;;6.60;99.90;;;;;;5021415;28;20040;-56
2023/11/23 08:47:39;;;;;;;11.77;7.53;;;6.70;99.90;;;;;;5014676;28;20030;-54
2023/11/23 08:50:05;;;;;;;12.40;7.78;;;6.70;99.90;;;;;;5017727;28;20113;-55
2023/11/23 08:52:31;;;;;;;9.52;6.68;;;6.80;99.90;;;;;;5015563;28;20033;-57
2023/11/23 08:54:59;;;;;;;12.65;8.85;;;6.80;99.90;;;;;;5018497;28;20051;-55
2023/11/23 08:57:25;;;;;;;12.43;8.20;;;6.80;99.90;;;;;;5018875;28;20562;-55
2023/11/23 08:59:50;;;;;;;12.80;8.07;;;6.90;99.90;;;;;;5019409;28;20026;-54
2023/11/23 09:02:16;;;;;;;11.68;7.93;;;6.90;99.90;;;;;;5012924;28;20120;-57
2023/11/23 09:04:42;;;;;;;11.00;8.23;;;6.90;99.90;;;;;;5019572;28;20034;-60
2023/11/23 09:07:08;;;;;;;12.13;7.72;;;6.90;99.90;;;;;;5016073;28;20090;-61
2023/11/23 09:09:34;;;;;;;13.48;7.95;;;7.00;99.90;;;;;;5021971;28;20028;-61
2023/11/23 09:12:01;;;;;;;11.15;7.97;;;7.00;99.90;;;;;;5024059;28;20083;-61
2023/11/23 09:14:27;;;;;;;14.55;8.45;;;7.00;99.90;;;;;;5017931;28;20410;-61
2023/11/23 09:16:53;;;;;;;14.50;8.95;;;7.10;99.90;;;;;;5020379;28;20104;-61
2023/11/23 09:19:18;;;;;;;14.90;9.73;;;7.10;99.90;;;;;;5015611;28;20030;-61
2023/11/23 09:21:46;;;;;;;13.00;8.80;;;7.10;99.90;;;;;;5020539;28;20048;-61
2023/11/23 09:24:12;;;;;;;12.70;7.75;;;7.20;99.90;;;;;;5020469;28;20029;-61
2023/11/23 09:26:38;;;;;;;11.00;7.25;;;7.20;99.90;;;;;;5017500;28;20018;-61
2023/11/23 09:29:05;;;;;;;12.95;7.80;;;7.20;99.90;;;;;;5021532;28;20030;-61
2023/11/23 09:31:32;;;;;;;13.30;7.57;;;7.30;99.90;;;;;;5021818;28;20063;-61
2023/11/23 09:33:57;;;;;;;11.75;7.57;;;7.30;99.90;;;;;;5019353;28;20048;-61
2023/11/23 09:36:23;;;;;;;13.10;8.23;;;7.30;99.90;;;;;;5015941;28;20175;-61
2023/11/23 09:38:49;;;;;;;12.77;7.35;;;7.30;99.90;;;;;;5017904;28;20394;-61
2023/11/23 09:41:18;;;;;;;13.50;7.95;;;7.40;99.90;;;;;;5018338;28;20021;-58
2023/11/23 09:43:46;;;;;;;12.20;7.38;;;7.40;99.90;;;;;;5010303;28;20064;-58
2023/11/23 09:46:12;;;;;;;12.95;7.45;;;7.40;99.90;;;;;;5015309;28;20030;-58
2023/11/23 09:48:39;;;;;;;13.82;7.72;;;7.40;99.90;;;;;;5022257;28;20034;-59
2023/11/23 09:51:09;;;;;;;13.68;7.80;;;7.40;99.90;;;;;;5022950;28;20026;-59
2023/11/23 09:53:35;;;;;;;10.27;6.97;;;7.40;99.90;;;;;;5022940;28;20418;-58
2023/11/23 09:56:03;;;;;;;12.30;7.75;;;7.40;99.90;;;;;;5014059;28;20135;-58
2023/11/23 09:58:29;;;;;;;12.65;7.63;;;7.40;99.90;;;;;;5023723;28;20029;-58
2023/11/23 10:01:00;;;;;;;14.05;7.35;;;7.50;99.90;;;;;;5021669;28;20032;-59
2023/11/23 10:03:30;;;;;;;10.10;7.22;;;7.50;99.90;;;;;;5021116;28;20116;-59
2023/11/23 10:05:56;;;;;;;11.75;7.72;;;7.50;99.90;;;;;;5020940;28;20030;-59
2023/11/23 10:08:22;;;;;;;13.18;7.70;;;7.50;99.90;;;;;;5017668;28;20088;-58
2023/11/23 10:10:47;;;;;;;13.38;7.47;;;7.50;99.90;;;;;;5024831;28;20436;-58
2023/11/23 10:13:12;;;;;;;10.38;6.80;;;7.50;99.90;;;;;;5019160;28;20100;-61
2023/11/23 10:15:38;;;;;;;10.27;6.85;;;7.50;99.90;;;;;;5021938;28;20034;-61
2023/11/23 10:18:03;;;;;;;12.10;7.03;;;7.50;99.90;;;;;;5022563;28;20021;-61
2023/11/23 10:20:31;;;;;;;13.20;7.28;;;7.50;99.90;;;;;;5018286;28;20038;-61
2023/11/23 10:22:57;;;;;;;10.45;6.68;;;7.50;99.90;;;;;;5021893;28;20432;-61
2023/11/23 10:25:34;;;;;;;14.15;7.13;;;7.50;99.90;;;;;;5027086;28;20022;-60
2023/11/23 10:28:00;;;;;;;13.73;8.15;;;7.60;99.90;;;;;;5026817;28;20022;-60
2023/11/23 10:30:29;;;;;;;13.32;7.68;;;7.60;99.90;;;;;;5020549;28;20505;-59
2023/11/23 10:32:56;;;;;;;13.43;7.20;;;7.60;99.90;;;;;;5020269;28;20512;-59
2023/11/23 10:35:28;;;;;;;12.75;6.93;;;7.60;99.90;;;;;;5020264;28;20092;-59
2023/11/23 10:37:54;;;;;;;11.75;6.80;;;7.60;99.90;;;;;;5020002;28;20041;-60
2023/11/23 10:40:28;;;;;;;15.23;7.68;;;7.70;99.90;;;;;;5021095;28;20040;-60
2023/11/23 10:42:54;;;;;;;11.68;7.43;;;7.70;99.90;;;;;;5016142;28;20017;-60
2023/11/23 10:45:21;;;;;;;11.30;6.72;;;7.70;99.90;;;;;;5026796;28;20032;-60
2023/11/23 10:47:47;;;;;;;12.80;7.35;;;7.70;99.90;;;;;;5024316;28;20029;-60
2023/11/23 10:50:14;;;;;;;9.45;7.10;;;7.70;99.90;;;;;;5020093;28;20022;-60
2023/11/23 10:52:45;;;;;;;11.77;7.45;;;7.80;99.90;;;;;;5020153;28;20551;-60
2023/11/23 10:55:10;;;;;;;14.18;8.38;;;7.80;99.90;;;;;;5020067;28;20028;-60
2023/11/23 10:57:41;;;;;;;12.70;8.07;;;7.80;99.90;;;;;;5019947;28;20034;-59
2023/11/23 11:00:12;;;;;;;13.55;7.80;;;7.80;99.90;;;;;;5024215;28;20497;-60
2023/11/23 11:02:39;;;;;;;12.05;7.68;;;7.80;99.90;;;;;;5023889;28;20037;-60
2023/11/23 11:05:22;;;;;;;9.40;6.60;;;7.80;99.90;;;;;;5022431;28;20037;-60
2023/11/23 11:08:17;;;;;;;9.27;6.72;;;7.80;99.90;;;;;;5020084;28;20029;-60
2023/11/23 11:10:48;;;;;;;12.65;7.40;;;7.80;99.90;;;;;;5022468;28;20030;-61
2023/11/23 11:13:16;;;;;;;10.07;7.13;;;7.80;99.90;;;;;;5019798;28;20022;-59
2023/11/23 11:15:49;;;;;;;11.10;6.72;;;7.90;99.90;;;;;;5019892;28;20048;-60
2023/11/23 11:18:20;;;;;;;13.90;7.82;;;7.90;99.90;;;;;;5019519;28;20430;-60
2023/11/23 11:21:08;;;;;;;8.95;5.72;;;7.90;99.90;;;;;;5019773;28;20080;-59
2023/11/23 11:23:47;;;;;;;11.30;8.25;;;7.90;99.90;;;;;;5011628;28;20030;-59
2023/11/23 11:26:25;;;;;;;11.18;6.68;;;8.00;99.90;;;;;;5017523;28;20022;-59
2023/11/23 11:28:59;;;;;;;11.38;7.45;;;7.90;99.90;;;;;;5020198;28;20029;-60
2023/11/23 11:31:35;;;;;;;10.70;7.28;;;8.00;99.90;;;;;;5022130;28;20105;-60
2023/11/23 11:34:22;;;;;;;10.82;7.45;;;8.00;99.90;;;;;;5020486;28;20091;-59
2023/11/23 11:37:00;;;;;;;13.95;7.72;;;8.00;99.90;;;;;;5004439;28;20714;-59
2023/11/23 11:39:41;;;;;;;13.05;8.18;;;8.00;99.90;;;;;;5017361;28;20022;-60
2023/11/23 11:42:13;;;;;;;11.38;7.25;;;8.00;99.90;;;;;;5016734;28;20109;-60
2023/11/23 11:44:43;;;;;;;9.27;6.47;;;8.00;99.90;;;;;;5019308;28;20048;-59
2023/11/23 11:47:10;;;;;;;9.85;7.15;;;8.00;99.90;;;;;;5023918;28;20067;-59
2023/11/23 11:49:37;;;;;;;12.35;6.70;;;8.00;99.90;;;;;;5017551;28;20053;-59
2023/11/23 11:52:05;;;;;;;9.68;6.53;;;8.10;99.90;;;;;;5021802;28;20025;-60
2023/11/23 11:54:31;;;;;;;11.23;6.88;;;8.10;99.90;;;;;;5019143;28;20017;-59
2023/11/23 11:56:57;;;;;;;9.10;6.85;;;8.10;99.90;;;;;;5021188;28;20022;-60
2023/11/23 11:59:25;;;;;;;11.65;7.15;;;8.10;99.90;;;;;;5026217;28;20374;-59
2023/11/23 12:01:50;;;;;;;9.85;6.63;;;8.20;99.90;;;;;;5020766;28;20641;-59
2023/11/23 12:04:20;;;;;;;9.90;6.63;;;8.20;99.90;;;;;;5018931;28;20087;-60
2023/11/23 12:06:50;;;;;;;10.57;7.18;;;8.20;99.90;;;;;;5020381;28;20029;-60
2023/11/23 12:09:19;;;;;;;12.43;7.50;;;8.20;99.90;;;;;;5021093;28;20713;-60
2023/11/23 12:11:49;;;;;;;12.63;8.18;;;8.20;99.90;;;;;;5020923;28;20030;-60
2023/11/23 12:14:15;;;;;;;9.98;6.28;;;8.20;99.90;;;;;;5020672;28;20539;-60
2023/11/23 12:16:41;;;;;;;11.63;7.38;;;8.20;99.90;;;;;;5021729;28;20286;-59
2023/11/23 12:19:19;;;;;;;7.90;5.90;;;8.30;99.90;;;;;;5029009;28;20021;-60
2023/11/23 12:21:56;;;;;;;9.82;6.22;;;8.30;99.90;;;;;;5012078;28;20081;-60
2023/11/23 12:24:22;;;;;;;10.50;6.47;;;8.30;99.90;;;;;;5021520;28;20090;-60
2023/11/23 12:26:49;;;;;;;11.38;6.15;;;8.30;99.90;;;;;;5021721;28;20021;-59
2023/11/23 12:29:25;;;;;;;9.25;6.78;;;8.30;99.90;;;;;;5017878;28;20033;-60
2023/11/23 12:31:50;;;;;;;;;;;8.30;99.90;;;;;;5021373;28;20029;-60
2023/11/23 12:34:16;;;;;;;11.05;6.63;;;8.30;99.90;;;;;;5018909;28;20317;-59
2023/11/23 12:36:43;;;;;;;11.95;7.20;;;8.30;99.90;;;;;;5014288;28;20029;-60
2023/11/23 12:39:09;;;;;;;13.55;7.85;;;8.30;99.90;;;;;;5023365;28;20549;-60
2023/11/23 12:41:35;;;;;;;12.15;7.50;;;8.30;99.90;;;;;;5019217;28;20577;-59
2023/11/23 12:44:00;;;;;;;13.52;7.10;;;8.40;99.90;;;;;;5018829;28;20034;-60
2023/11/23 12:46:26;;;;;;;12.48;7.30;;;8.40;99.90;;;;;;5020243;28;20036;-59
2023/11/23 12:48:52;;;;;;;10.55;7.05;;;8.40;99.90;;;;;;5022592;28;20040;-60